• Join FlightAware (Why Join?)
  • Login
  • US Flag 
06:13PM EST


 

Airport Tracker/Info


-or-


 

Live Flight TrackerFlight Track Log ✈ EJA941 ✈ 05-Oct-2013 ✈ KAGC - KTEB

Flight Track Log - Related Links

Times and Time Zones

All times are in EDT time to prevent confusion due to time zone crossing. See the EJA941 flight status page for this flight to view local times or setup timezone preferences in your user account.

Time Position Orientation Groundspeed Altitude Reporting Facility
EDT Latitude Longitude Course Direction KTS MPH feet Rate Location/Type
04:39PM 40.3739 -79.9764 50° Northeast 187 215 3,000  Level Cleveland Center
04:40PM 40.4322 -79.9636 North 220 253 5,600 2,580 Climbing Cleveland Center
04:41PM 40.4994 -79.9408 14° North 249 287 8,400 2,580 Climbing Cleveland Center
04:42PM 40.5950 -79.9081 15° North 297 342 11,000 2,100 Climbing Cleveland Center
04:43PM 40.6878 -79.8753 15° North 341 392 12,800 1,800 Climbing Cleveland Center
04:44PM 40.7407 -79.2750 50° Northeast  Level FlightAware Approximate
04:44PM 40.7864 -79.8439 14° North 361 415 14,700  Level Cleveland Center
04:45PM 40.8881 -79.8089 15° North 376 433 16,700 1,800 Climbing Cleveland Center
04:46PM 40.9914 -79.7744 14° North 381 438 18,400 1,560 Climbing Cleveland Center
04:47PM 41.0983 -79.7392 14° North 393 452 19,900 1,500 Climbing Cleveland Center
04:48PM 41.2089 -79.6411 34° Northeast 426 490 21,500 1,320 Climbing Cleveland Center
04:49PM 41.2389 -79.5117 73° East 440 506 22,700 1,380 Climbing Cleveland Center
04:50PM 41.2753 -79.3153 76° East 456 525 24,400 1,320 Climbing Cleveland Center
04:51PM 41.3053 -79.1547 76° East 467 537 25,500 1,080 Climbing Cleveland Center
04:52PM 41.3369 -78.9803 76° East 484 557 26,700 720 Climbing Cleveland Center
04:53PM 41.3692 -78.7925 77° East 494 568 27,000 120 Climbing Cleveland Center
04:54PM 41.4019 -78.6128 76° East 515 593 27,000  Level Cleveland Center
04:55PM 41.4350 -78.4208 77° East 527 606 27,000  Level Cleveland Center
04:56PM 41.4689 -78.2253 77° East 537 618 27,000  Level Cleveland Center
04:57PM 41.4942 -78.0833 77° East 556 640 27,000  Level New York Center
04:58PM 41.5369 -77.8939 73° East 556 640 27,000  Level New York Center
04:59PM 41.5997 -77.7117 65° Northeast 545 627 27,000  Level New York Center
05:00PM 41.6603 -77.5292 66° East 539 620 27,000  Level New York Center
05:01PM 41.6917 -77.3406 77° East 534 615 27,000 -480 Level New York Center
05:02PM 41.6714 -77.1386 98° East 525 604 26,100 -1,080 Descending New York Center
05:03PM 41.6325 -76.9294 104° East 525 604 24,900 -1,080 Descending New York Center
05:04PM 41.5742 -76.7661 115° Southeast 520 598 24,000 -480 Descending New York Center
05:05PM 41.5194 -76.5700 110° East 520 598 24,000  Level New York Center
05:06PM 41.4697 -76.3883 110° East 520 598 24,000 -420 Level New York Center
05:07PM 41.4200 -76.2072 110° East 520 598 23,200 -900 Descending New York Center
05:08PM 41.3728 -76.0486 112° Southeast 520 598 22,300 -600 Descending New York Center
05:09PM 41.3242 -75.8761 111° Southeast 504 580 22,000 -1,440 Descending New York Center
05:10PM 41.2772 -75.7069 110° East 504 580 19,500 -2,760 Descending New York Center
05:11PM 41.2253 -75.5489 114° Southeast 478 550 16,500 -2,700 Descending New York Center
05:12PM 41.1806 -75.4161 114° Southeast 423 487 14,100 -2,460 Descending New York Center
05:13PM 41.1378 -75.2864 114° Southeast 367 422 11,600 -2,280 Descending New York Center
05:14PM 41.1022 -75.1794 114° Southeast 324 373 9,600 -1,920 Descending New York Center
05:15PM 41.0683 -75.0781 114° Southeast 312 359 7,800 -1,800 Descending New York Center
05:16PM 41.0469 -74.9831 107° East 301 346 6,100 -900 Descending New York Center
05:17PM 41.0322 -74.8639 99° East 291 335 6,000 -600 Descending New York Center
05:18PM 41.0169 -74.7642 101° East 291 335 5,000 -1,020 Descending New York Center
05:19PM 41.0056 -74.6728 99° East 280 322 4,000 -540 Descending New York Center
05:20PM 40.9922 -74.5647 99° East 275 316 4,000 -300 Level New York Center
05:21PM 40.9825 -74.4789 99° East 275 316 3,500 -540 Descending New York Center
05:22PM 40.9692 -74.3739 100° East 275 316 3,000 -360 Descending New York Center
05:22PM 40.9667 -74.3167 93° East 272 313 3,000 -180 Level New York TRACON
05:23PM 40.9500 -74.2167 102° East 262 302 2,800 -600 Descending New York TRACON
05:24PM 40.9333 -74.1500 108° East 217 250 1,900 -660 Descending New York TRACON
05:25PM 40.9333 -74.0833 90° East 177 204 1,500 -600 Descending New York TRACON
05:26PM 40.9000 -74.0500 143° Southeast 134 154 800 -720 Descending New York TRACON
05:30PM 40.8500 -74.0500 101° East  Level FlightAware Approximate